Time;durP1;ratioP1;P1;durP2;ratioP2;P2;SDS_P1;SDS_P2;PMS_P1;PMS_P2;Temp;Humidity;BMP_temperature;BMP_pressure;BME280_temperature;BME280_humidity;BME280_pressure;Samples;Min_cycle;Max_cycle;Signal;HPM_P1;HPM_P2
2022/09/22 00:00:56;;;;;;;5.53;4.60;;;12.10;99.90;;;;;;5051671;28;20432;-50
2022/09/22 00:03:22;;;;;;;5.73;5.10;;;12.10;99.90;;;;;;5034376;28;20445;-50
2022/09/22 00:05:49;;;;;;;8.60;6.00;;;12.40;99.90;;;;;;5052166;28;20434;-51
2022/09/22 00:08:17;;;;;;;6.40;5.20;;;11.90;99.90;;;;;;5051626;28;20471;-50
2022/09/22 00:10:44;;;;;;;6.87;5.40;;;12.10;99.90;;;;;;5051670;28;20460;-50
2022/09/22 00:13:10;;;;;;;5.57;5.10;;;12.00;99.90;;;;;;5052074;28;21020;-50
2022/09/22 00:15:37;;;;;;;9.87;5.97;;;12.10;99.90;;;;;;5051903;28;20449;-50
2022/09/22 00:18:03;;;;;;;6.93;5.93;;;11.90;99.90;;;;;;5052222;28;20435;-49
2022/09/22 00:20:30;;;;;;;8.93;6.23;;;11.80;99.90;;;;;;5051284;28;20482;-50
2022/09/22 00:22:57;;;;;;;9.33;6.17;;;11.70;99.90;;;;;;5051748;28;20409;-49
2022/09/22 00:25:25;;;;;;;7.47;5.60;;;11.80;99.90;;;;;;5051902;28;20903;-49
2022/09/22 00:27:53;;;;;;;6.93;5.80;;;11.60;99.90;;;;;;5054409;28;20480;-50
2022/09/22 00:30:19;;;;;;;21.03;7.43;;;11.50;99.90;;;;;;5055566;28;20448;-50
2022/09/22 00:32:46;;;;;;;6.53;5.93;;;11.40;99.90;;;;;;5055692;28;20451;-50
2022/09/22 00:35:13;;;;;;;7.20;5.60;;;11.50;99.90;;;;;;5055678;28;20437;-50
2022/09/22 00:37:39;;;;;;;6.23;5.33;;;11.60;99.90;;;;;;5055655;28;20428;-49
2022/09/22 00:40:08;;;;;;;8.07;4.83;;;11.70;99.90;;;;;;5055344;28;20453;-50
2022/09/22 00:42:36;;;;;;;7.70;6.10;;;11.70;99.90;;;;;;5055581;28;20426;-49
2022/09/22 00:45:05;;;;;;;6.63;5.20;;;11.50;99.90;;;;;;5055576;28;20433;-50
2022/09/22 00:47:35;;;;;;;5.33;4.60;;;11.40;99.90;;;;;;5055292;28;20475;-50
2022/09/22 00:50:08;;;;;;;6.27;5.03;;;11.40;99.90;;;;;;5055004;28;20456;-50
2022/09/22 00:52:40;;;;;;;6.40;5.03;;;11.10;99.90;;;;;;5055386;28;20439;-51
2022/09/22 00:55:13;;;;;;;5.40;4.90;;;11.30;99.90;;;;;;5055252;28;20922;-50
2022/09/22 00:57:43;;;;;;;5.87;5.27;;;11.30;99.90;;;;;;5055295;28;20431;-50
2022/09/22 01:00:11;;;;;;;5.23;4.73;;;11.00;99.90;;;;;;5054764;28;20467;-50
2022/09/22 01:02:38;;;;;;;5.20;4.70;;;11.10;99.90;;;;;;5054974;28;20793;-50
2022/09/22 01:05:06;;;;;;;7.10;5.50;;;11.10;99.90;;;;;;5055002;28;20431;-50
2022/09/22 01:07:33;;;;;;;5.83;5.00;;;11.10;99.90;;;;;;5055052;28;20573;-50
2022/09/22 01:09:59;;;;;;;5.60;5.00;;;11.00;99.90;;;;;;5054596;28;20458;-50
2022/09/22 01:12:29;;;;;;;5.73;5.13;;;11.50;99.90;;;;;;5055582;28;20805;-50
2022/09/22 01:15:09;;;;;;;5.30;4.80;;;11.20;99.90;;;;;;5054905;28;20920;-50
2022/09/22 01:17:44;;;;;;;11.13;4.90;;;11.00;99.90;;;;;;5054972;28;20450;-49
2022/09/22 01:20:56;;;;;;;5.77;4.40;;;10.90;99.90;;;;;;5054580;28;20465;-50
2022/09/22 01:23:50;;;;;;;6.93;4.33;;;11.10;99.90;;;;;;5054683;28;20466;-49
2022/09/22 01:26:52;;;;;;;9.57;5.10;;;10.80;99.90;;;;;;5054849;28;20439;-49
2022/09/22 01:29:53;;;;;;;5.10;4.60;;;10.80;99.90;;;;;;5054127;28;20478;-50
2022/09/22 01:32:28;;;;;;;6.00;4.70;;;11.00;99.90;;;;;;5054491;28;20437;-49
2022/09/22 01:34:58;;;;;;;7.10;4.50;;;10.80;99.90;;;;;;5054556;28;20443;-49
2022/09/22 01:37:31;;;;;;;7.50;5.03;;;10.60;99.90;;;;;;5054029;28;20435;-50
2022/09/22 01:40:03;;;;;;;4.90;4.50;;;10.70;99.90;;;;;;5054064;28;20451;-49
2022/09/22 01:42:36;;;;;;;6.10;4.90;;;10.70;99.90;;;;;;5054388;28;20438;-50
2022/09/22 01:45:07;;;;;;;5.87;4.90;;;10.80;99.90;;;;;;5054570;28;20436;-50
2022/09/22 01:47:40;;;;;;;5.90;4.93;;;10.70;99.90;;;;;;5054285;28;20424;-49
2022/09/22 01:50:13;;;;;;;5.70;5.20;;;11.10;99.90;;;;;;5053814;28;21040;-49
2022/09/22 01:52:41;;;;;;;5.30;4.80;;;10.50;99.90;;;;;;5054205;28;20439;-49
2022/09/22 01:55:14;;;;;;;5.03;4.53;;;10.30;99.90;;;;;;5054292;28;20796;-50
2022/09/22 01:57:47;;;;;;;5.97;5.40;;;10.50;99.90;;;;;;5054185;28;20829;-49
2022/09/22 02:00:14;;;;;;;5.70;5.00;;;10.90;99.90;;;;;;5053743;28;20791;-50
2022/09/22 02:02:48;;;;;;;5.93;5.10;;;10.50;99.90;;;;;;5054046;28;20493;-50
2022/09/22 02:05:19;;;;;;;5.10;4.60;;;10.50;99.90;;;;;;5054035;28;20444;-49
2022/09/22 02:07:50;;;;;;;7.13;4.73;;;10.70;99.90;;;;;;5054481;28;20749;-50
2022/09/22 02:10:20;;;;;;;6.10;5.50;;;10.40;99.90;;;;;;5053543;28;20455;-50
2022/09/22 02:12:48;;;;;;;7.97;4.90;;;10.50;99.90;;;;;;5053961;28;20451;-50
2022/09/22 02:18:01;;;;;;;4.97;4.07;;;10.40;99.90;;;;;;5052789;28;20443;-50
2022/09/22 02:20:28;;;;;;;5.73;4.40;;;10.50;99.90;;;;;;5053265;28;20470;-49
2022/09/22 02:22:55;;;;;;;4.80;4.33;;;10.60;99.90;;;;;;5053575;28;20431;-52
2022/09/22 02:25:23;;;;;;;5.27;4.73;;;10.20;99.90;;;;;;5053614;28;20419;-48
2022/09/22 02:27:53;;;;;;;5.67;4.97;;;10.10;99.90;;;;;;5053307;28;20434;-49
2022/09/22 02:30:21;;;;;;;7.30;5.40;;;10.20;99.90;;;;;;5035128;28;20493;-49
2022/09/22 02:32:50;;;;;;;7.63;5.40;;;10.40;99.90;;;;;;5053474;28;20439;-50
2022/09/22 02:35:19;;;;;;;7.63;5.70;;;10.80;99.90;;;;;;5053367;28;20445;-50
2022/09/22 02:37:50;;;;;;;5.80;4.83;;;10.20;99.90;;;;;;5053343;28;20458;-50
2022/09/22 02:40:26;;;;;;;7.27;5.20;;;10.80;99.90;;;;;;5034913;28;20473;-49
2022/09/22 02:42:59;;;;;;;6.20;5.13;;;10.20;99.90;;;;;;5053251;28;20445;-49
2022/09/22 02:45:30;;;;;;;6.17;4.93;;;10.10;99.90;;;;;;5053167;28;20401;-50
2022/09/22 02:48:02;;;;;;;5.20;4.70;;;10.10;99.90;;;;;;5053208;28;20413;-50
2022/09/22 02:50:31;;;;;;;7.33;5.10;;;10.00;99.90;;;;;;5051779;28;20520;-50
2022/09/22 02:53:02;;;;;;;5.43;4.87;;;10.60;99.90;;;;;;5053528;28;20442;-51
2022/09/22 02:55:29;;;;;;;12.53;5.30;;;10.10;99.90;;;;;;5052934;28;20443;-51
2022/09/22 02:57:56;;;;;;;6.80;5.23;;;10.40;99.90;;;;;;5052935;28;20446;-51
2022/09/22 03:00:22;;;;;;;5.77;5.20;;;10.10;99.90;;;;;;5052526;28;20888;-51
2022/09/22 03:02:49;;;;;;;5.40;4.70;;;10.40;99.90;;;;;;5052770;28;20492;-51
2022/09/22 03:05:16;;;;;;;11.93;4.50;;;10.10;99.90;;;;;;5052721;28;20965;-51
2022/09/22 03:07:44;;;;;;;5.93;4.57;;;9.90;99.90;;;;;;5052809;28;20430;-51
2022/09/22 03:10:11;;;;;;;8.00;4.20;;;9.90;99.90;;;;;;5052331;28;20498;-50
2022/09/22 03:12:41;;;;;;;7.73;4.87;;;9.90;99.90;;;;;;5052618;28;20430;-50
2022/09/22 03:15:09;;;;;;;6.20;4.97;;;9.80;99.90;;;;;;5052656;28;20937;-51
2022/09/22 03:17:36;;;;;;;5.53;5.00;;;9.90;99.90;;;;;;5053131;28;20462;-51
2022/09/22 03:20:03;;;;;;;4.20;3.80;;;10.00;99.90;;;;;;5051880;28;20473;-51
2022/09/22 03:22:30;;;;;;;5.87;4.30;;;9.60;99.90;;;;;;5052575;28;20856;-51
2022/09/22 03:24:58;;;;;;;7.60;5.10;;;9.80;99.90;;;;;;5052494;28;20434;-51
2022/09/22 03:27:26;;;;;;;9.13;5.47;;;9.90;99.90;;;;;;5052341;28;20484;-50
2022/09/22 03:29:53;;;;;;;6.10;4.73;;;9.90;99.90;;;;;;5051787;28;20850;-50
2022/09/22 03:32:20;;;;;;;6.87;4.90;;;9.60;99.90;;;;;;5052162;28;20411;-50
2022/09/22 03:34:47;;;;;;;5.80;4.67;;;9.70;99.90;;;;;;5052286;28;20833;-51
2022/09/22 03:37:14;;;;;;;4.27;3.70;;;9.80;99.90;;;;;;5052170;28;20431;-51
2022/09/22 03:39:41;;;;;;;6.60;3.97;;;9.50;99.90;;;;;;5051786;28;20926;-50
2022/09/22 03:42:09;;;;;;;4.77;4.30;;;9.40;99.90;;;;;;5034341;28;20443;-49
2022/09/22 03:44:35;;;;;;;5.70;4.67;;;9.30;99.90;;;;;;5052074;28;20435;-51
2022/09/22 03:47:02;;;;;;;5.77;4.50;;;9.10;99.90;;;;;;5033988;28;20549;-51
2022/09/22 03:49:29;;;;;;;4.80;4.30;;;10.10;99.90;;;;;;5051420;28;20485;-51
2022/09/22 03:51:55;;;;;;;6.13;4.60;;;9.60;99.90;;;;;;5051907;28;20488;-49
2022/09/22 03:54:22;;;;;;;5.60;4.50;;;9.40;99.90;;;;;;5051940;28;20509;-51
2022/09/22 03:56:50;;;;;;;4.83;4.33;;;9.50;99.90;;;;;;5051896;28;20501;-50
2022/09/22 03:59:18;;;;;;;6.30;4.80;;;9.70;99.90;;;;;;5033767;28;20570;-50
2022/09/22 04:01:44;;;;;;;6.47;5.27;;;9.50;99.90;;;;;;5051769;28;20439;-51
2022/09/22 04:04:11;;;;;;;5.47;4.30;;;10.10;99.90;;;;;;5051723;28;20899;-51
2022/09/22 04:06:38;;;;;;;7.23;5.10;;;9.40;99.90;;;;;;5051834;28;20430;-50
2022/09/22 04:09:05;;;;;;;7.70;5.23;;;9.60;99.90;;;;;;5051297;28;20456;-51
2022/09/22 04:11:32;;;;;;;8.20;4.37;;;10.10;99.90;;;;;;5051834;28;20951;-51
2022/09/22 04:14:00;;;;;;;7.90;5.00;;;9.70;99.90;;;;;;5051651;28;20546;-50
2022/09/22 04:16:28;;;;;;;4.93;4.43;;;9.60;99.90;;;;;;5051557;28;20443;-50
2022/09/22 04:18:55;;;;;;;4.47;4.07;;;9.60;99.90;;;;;;5051685;28;20473;-50
2022/09/22 04:21:22;;;;;;;6.23;4.40;;;9.40;99.90;;;;;;5051491;28;20442;-51
2022/09/22 04:23:48;;;;;;;7.67;4.37;;;9.50;99.90;;;;;;5051543;28;20492;-50
2022/09/22 04:26:15;;;;;;;6.03;4.07;;;9.40;99.90;;;;;;5051585;28;20504;-50
2022/09/22 04:28:41;;;;;;;9.33;5.57;;;10.10;99.90;;;;;;5050929;28;20482;-51
2022/09/22 04:31:08;;;;;;;6.87;4.50;;;9.50;99.90;;;;;;5033677;28;20450;-50
2022/09/22 04:33:36;;;;;;;7.83;5.20;;;9.50;99.90;;;;;;5051479;28;20438;-50
2022/09/22 04:36:02;;;;;;;8.97;5.63;;;9.40;99.90;;;;;;5051476;28;20420;-50
2022/09/22 04:38:29;;;;;;;8.97;4.87;;;9.70;99.90;;;;;;5033067;28;20429;-50
2022/09/22 04:40:56;;;;;;;4.50;4.10;;;9.70;99.90;;;;;;5051554;28;20823;-50
2022/09/22 04:43:22;;;;;;;7.80;5.27;;;9.20;99.90;;;;;;5051421;28;20527;-50
2022/09/22 04:45:49;;;;;;;8.10;4.73;;;9.40;99.90;;;;;;5051306;28;20431;-50
2022/09/22 04:48:16;;;;;;;8.10;4.93;;;8.70;99.90;;;;;;5051157;28;20802;-51
2022/09/22 04:50:44;;;;;;;8.60;4.77;;;9.10;99.90;;;;;;5050798;28;20780;-51
2022/09/22 04:53:11;;;;;;;5.63;4.50;;;9.20;99.90;;;;;;5051239;28;20449;-51
2022/09/22 04:55:38;;;;;;;3.80;3.40;;;9.10;99.90;;;;;;5051263;28;20435;-51
2022/09/22 04:58:06;;;;;;;5.20;3.60;;;9.20;99.90;;;;;;5051289;28;20426;-51
2022/09/22 05:00:33;;;;;;;3.47;3.17;;;9.30;99.90;;;;;;5050971;28;20541;-51
2022/09/22 05:03:02;;;;;;;5.33;4.43;;;9.20;99.90;;;;;;5051153;28;20446;-51
2022/09/22 05:05:28;;;;;;;5.63;3.83;;;9.00;99.90;;;;;;5051170;28;20802;-51
2022/09/22 05:07:56;;;;;;;4.70;3.60;;;9.30;99.90;;;;;;5051106;28;20522;-51
2022/09/22 05:10:24;;;;;;;12.40;3.57;;;9.50;99.90;;;;;;5050576;28;20478;-51
2022/09/22 05:12:52;;;;;;;9.50;4.93;;;9.10;99.90;;;;;;5033686;28;20541;-51
2022/09/22 05:15:19;;;;;;;4.00;3.60;;;9.40;99.90;;;;;;5054755;28;20441;-51
2022/09/22 05:17:46;;;;;;;4.03;3.60;;;9.20;99.90;;;;;;5054528;28;20948;-50
2022/09/22 05:20:13;;;;;;;5.63;4.13;;;9.10;99.90;;;;;;5054023;28;20830;-51
2022/09/22 05:22:40;;;;;;;5.30;4.60;;;9.20;99.90;;;;;;5054808;28;20426;-50
2022/09/22 05:25:11;;;;;;;4.53;3.70;;;9.00;99.90;;;;;;5054451;28;20919;-51
2022/09/22 05:27:37;;;;;;;4.77;4.07;;;9.40;99.90;;;;;;5054289;28;20943;-54
2022/09/22 05:30:05;;;;;;;5.70;3.93;;;9.40;99.90;;;;;;5053963;28;20896;-50
2022/09/22 05:32:32;;;;;;;4.60;4.10;;;9.10;99.90;;;;;;5054085;28;20431;-51
2022/09/22 05:34:58;;;;;;;6.70;4.27;;;9.10;99.90;;;;;;5054332;28;20536;-52
2022/09/22 05:37:25;;;;;;;5.40;4.20;;;9.40;99.90;;;;;;5053988;28;20430;-51
2022/09/22 05:39:51;;;;;;;9.60;5.07;;;9.90;99.90;;;;;;5053531;28;20461;-51
2022/09/22 05:42:20;;;;;;;8.17;4.00;;;9.50;99.90;;;;;;5053766;28;20803;-51
2022/09/22 05:44:46;;;;;;;7.27;4.57;;;9.20;99.90;;;;;;5053656;28;20992;-50
2022/09/22 05:47:13;;;;;;;8.67;4.50;;;9.30;99.90;;;;;;5053364;28;20445;-50
2022/09/22 05:49:39;;;;;;;5.47;4.53;;;9.30;99.90;;;;;;5052752;28;20475;-50
2022/09/22 05:52:06;;;;;;;7.33;4.70;;;9.80;99.90;;;;;;5053887;28;20426;-50
2022/09/22 05:54:32;;;;;;;7.33;5.07;;;9.40;99.90;;;;;;5053965;28;20818;-51
2022/09/22 05:56:59;;;;;;;6.40;4.60;;;9.40;99.90;;;;;;5053813;28;20790;-51
2022/09/22 05:59:27;;;;;;;8.57;5.20;;;9.40;99.90;;;;;;5053539;28;20454;-51
2022/09/22 06:01:53;;;;;;;7.80;4.93;;;9.80;99.90;;;;;;5053572;28;20405;-50
2022/09/22 06:04:20;;;;;;;17.30;6.30;;;10.20;99.90;;;;;;5053317;28;20442;-50
2022/09/22 06:06:47;;;;;;;7.30;5.40;;;10.30;99.90;;;;;;5053673;28;20442;-50
2022/09/22 06:09:13;;;;;;;9.30;5.43;;;10.20;99.90;;;;;;5052968;28;20977;-53
2022/09/22 06:11:40;;;;;;;11.10;6.17;;;10.30;99.90;;;;;;5053253;28;20477;-51
2022/09/22 06:14:07;;;;;;;8.77;5.17;;;10.40;99.90;;;;;;5053379;28;20945;-51
2022/09/22 06:16:34;;;;;;;15.50;5.80;;;10.90;99.90;;;;;;5053364;28;20617;-50
2022/09/22 06:19:02;;;;;;;9.47;5.10;;;10.70;99.90;;;;;;5052765;28;20987;-51
2022/09/22 06:21:28;;;;;;;8.27;5.40;;;10.80;99.90;;;;;;5053271;28;20791;-51
2022/09/22 06:23:56;;;;;;;8.03;5.60;;;10.40;99.90;;;;;;5053160;28;20439;-50
2022/09/22 06:26:22;;;;;;;8.80;5.07;;;11.00;99.90;;;;;;5052747;28;20852;-51
2022/09/22 06:28:49;;;;;;;8.90;4.80;;;10.80;99.90;;;;;;5052789;28;20612;-51
2022/09/22 06:31:16;;;;;;;6.33;4.80;;;11.00;99.90;;;;;;5052973;28;20505;-51
2022/09/22 06:33:47;;;;;;;7.43;4.80;;;11.20;99.90;;;;;;5052953;28;20955;-50
2022/09/22 06:36:22;;;;;;;7.93;4.40;;;11.10;99.90;;;;;;5052709;28;20565;-51
2022/09/22 06:38:49;;;;;;;10.10;4.67;;;11.30;99.90;;;;;;5052283;28;20828;-50
2022/09/22 06:41:16;;;;;;;8.53;4.03;;;11.20;99.90;;;;;;5052537;28;20944;-50
2022/09/22 06:43:46;;;;;;;5.90;4.17;;;11.30;99.90;;;;;;5052953;28;20812;-50
2022/09/22 06:46:17;;;;;;;6.90;3.87;;;11.60;99.90;;;;;;5053046;28;20494;-51
2022/09/22 06:48:45;;;;;;;5.50;4.20;;;11.30;99.90;;;;;;5052236;28;20462;-49
2022/09/22 06:51:12;;;;;;;8.73;3.77;;;11.40;99.90;;;;;;5053130;28;20557;-50
2022/09/22 06:53:38;;;;;;;7.37;3.70;;;11.50;99.90;;;;;;5052536;28;20476;-50
2022/09/22 06:56:05;;;;;;;5.87;4.10;;;11.60;99.90;;;;;;5052536;28;20792;-50
2022/09/22 06:58:32;;;;;;;3.63;3.20;;;11.60;99.90;;;;;;5033795;28;20847;-50
2022/09/22 07:01:02;;;;;;;5.70;3.80;;;11.70;99.90;;;;;;5052001;28;20442;-51
2022/09/22 07:03:29;;;;;;;3.13;2.47;;;11.60;99.90;;;;;;5052328;28;20921;-51
2022/09/22 07:05:59;;;;;;;3.80;2.70;;;11.90;99.90;;;;;;5052479;28;20541;-50
2022/09/22 07:08:27;;;;;;;3.87;2.70;;;11.60;99.90;;;;;;5051841;28;20431;-50
2022/09/22 07:10:55;;;;;;;9.30;3.90;;;11.50;99.90;;;;;;5052171;28;20563;-51
2022/09/22 07:13:22;;;;;;;6.33;2.97;;;11.90;99.90;;;;;;5052378;28;20994;-50
2022/09/22 07:15:49;;;;;;;6.80;3.50;;;12.00;99.90;;;;;;5052099;28;20443;-51
2022/09/22 07:18:16;;;;;;;5.33;2.90;;;11.50;99.90;;;;;;5052130;28;20488;-50
2022/09/22 07:20:44;;;;;;;7.23;3.37;;;11.80;99.90;;;;;;5051077;28;20428;-50
2022/09/22 07:23:17;;;;;;;6.50;3.40;;;11.80;99.90;;;;;;5051893;28;20451;-51
2022/09/22 07:25:50;;;;;;;7.87;3.03;;;11.60;99.90;;;;;;5051890;28;20965;-51
2022/09/22 07:28:17;;;;;;;5.00;3.40;;;11.90;99.90;;;;;;5051780;28;20933;-50
2022/09/22 07:30:43;;;;;;;7.67;3.60;;;12.20;99.90;;;;;;5051382;28;20554;-51
2022/09/22 07:33:10;;;;;;;3.83;2.90;;;11.90;99.90;;;;;;5052010;28;20945;-51
2022/09/22 07:35:36;;;;;;;7.20;3.73;;;12.20;99.90;;;;;;5051442;28;20455;-52
2022/09/22 07:38:03;;;;;;;5.20;3.10;;;12.20;99.90;;;;;;5051801;28;20428;-51
2022/09/22 07:40:31;;;;;;;5.10;2.73;;;11.90;99.90;;;;;;5051366;28;20961;-51
2022/09/22 07:42:58;;;;;;;5.07;3.53;;;12.00;99.90;;;;;;5051640;28;20509;-51
2022/09/22 07:45:24;;;;;;;7.50;4.57;;;12.30;99.90;;;;;;5051524;28;20983;-50
2022/09/22 07:50:35;;;;;;;5.13;3.47;;;12.00;99.90;;;;;;5051243;28;20964;-51
2022/09/22 07:53:02;;;;;;;4.40;2.67;;;12.20;99.90;;;;;;5051329;28;20492;-51
2022/09/22 07:55:30;;;;;;;4.63;2.50;;;12.10;99.90;;;;;;5051566;28;20452;-51
2022/09/22 07:57:58;;;;;;;2.70;2.40;;;11.90;99.90;;;;;;5051192;28;20913;-51
2022/09/22 08:00:26;;;;;;;4.10;2.10;;;12.20;99.90;;;;;;5051091;28;20456;-50
2022/09/22 08:02:54;;;;;;;3.40;1.90;;;12.40;99.90;;;;;;5051646;28;20432;-51
2022/09/22 08:05:22;;;;;;;4.00;2.17;;;12.30;99.90;;;;;;5051798;28;20435;-50
2022/09/22 08:07:48;;;;;;;5.73;1.73;;;12.60;99.90;;;;;;5051442;28;20961;-51
2022/09/22 08:10:15;;;;;;;2.30;1.20;;;12.40;99.90;;;;;;5050846;28;20469;-50
2022/09/22 08:12:43;;;;;;;2.07;1.50;;;12.90;99.90;;;;;;5051376;28;20438;-50
2022/09/22 08:15:11;;;;;;;4.23;1.70;;;12.70;99.90;;;;;;5051613;28;20553;-49
2022/09/22 08:17:38;;;;;;;2.83;1.80;;;12.40;99.90;;;;;;5051047;28;20568;-50
2022/09/22 08:20:07;;;;;;;2.77;2.20;;;12.50;99.90;;;;;;5050909;28;20855;-51
2022/09/22 08:22:34;;;;;;;4.30;1.90;;;12.60;99.90;;;;;;5051457;28;20460;-51
2022/09/22 08:25:01;;;;;;;2.53;1.50;;;12.70;99.90;;;;;;5051435;28;20472;-51
2022/09/22 08:27:28;;;;;;;3.53;1.40;;;12.90;99.90;;;;;;5051433;28;20437;-50
2022/09/22 08:29:56;;;;;;;4.50;1.70;;;12.70;99.90;;;;;;5050885;28;20570;-50
2022/09/22 08:32:25;;;;;;;2.23;1.40;;;12.60;99.90;;;;;;5033268;28;20452;-51
2022/09/22 08:34:56;;;;;;;2.33;1.50;;;12.80;99.90;;;;;;5051239;28;20451;-50
2022/09/22 08:37:25;;;;;;;3.67;1.53;;;12.80;99.90;;;;;;5050968;28;20416;-50
2022/09/22 08:39:51;;;;;;;4.13;2.20;;;13.10;99.90;;;;;;5050918;28;20521;-50
2022/09/22 08:42:21;;;;;;;2.70;1.17;;;13.00;99.90;;;;;;5050880;28;20437;-51
2022/09/22 08:44:55;;;;;;;5.57;0.97;;;13.20;99.90;;;;;;5051010;28;20491;-50
2022/09/22 08:53:12;;;;;;;2.83;1.07;;;13.00;99.90;;;;;;5055102;28;20435;-50
2022/09/22 08:55:42;;;;;;;2.33;0.90;;;13.20;99.90;;;;;;5054973;28;20445;-51
2022/09/22 08:58:23;;;;;;;2.33;1.10;;;13.30;99.90;;;;;;5054667;28;20431;-51
2022/09/22 09:00:59;;;;;;;3.30;1.10;;;13.80;99.90;;;;;;5054882;28;20995;-50
2022/09/22 09:03:38;;;;;;;7.70;5.70;;;13.00;99.90;;;;;;5054713;28;20453;-50
2022/09/22 09:06:11;;;;;;;2.13;1.00;;;13.60;99.90;;;;;;5054828;28;20871;-50
2022/09/22 09:09:02;;;;;;;3.73;1.20;;;13.40;99.90;;;;;;5053970;28;20484;-49
2022/09/22 09:11:41;;;;;;;2.80;1.03;;;13.70;99.90;;;;;;5054630;28;20841;-51
2022/09/22 09:14:22;;;;;;;5.83;1.07;;;13.50;99.90;;;;;;5054489;28;20901;-50
2022/09/22 09:16:53;;;;;;;2.60;1.10;;;14.10;99.90;;;;;;5054457;28;20434;-50
2022/09/22 09:19:29;;;;;;;1.40;0.80;;;13.80;99.90;;;;;;5053736;28;20463;-51
2022/09/22 09:22:01;;;;;;;3.63;1.10;;;13.90;99.90;;;;;;5054441;28;20432;-51
2022/09/22 09:24:33;;;;;;;3.80;1.10;;;14.10;99.90;;;;;;5054261;28;20927;-50
2022/09/22 09:27:08;;;;;;;6.60;2.30;;;14.00;99.90;;;;;;5054307;28;21082;-49
2022/09/22 09:29:42;;;;;;;2.03;1.17;;;14.50;99.90;;;;;;5054147;28;20432;-50
2022/09/22 09:32:20;;;;;;;2.40;1.60;;;14.20;99.90;;;;;;5054101;28;21079;-51
2022/09/22 09:34:48;;;;;;;4.10;1.00;;;14.00;99.90;;;;;;5054271;28;20946;-51
2022/09/22 09:37:16;;;;;;;2.00;0.97;;;13.80;99.90;;;;;;5053891;28;20491;-50
2022/09/22 09:39:45;;;;;;;1.30;0.87;;;14.80;99.90;;;;;;5053544;28;20457;-50
2022/09/22 09:42:21;;;;;;;2.40;1.57;;;14.60;99.90;;;;;;5053969;28;20637;-51
2022/09/22 09:44:52;;;;;;;2.70;1.17;;;14.50;99.90;;;;;;5053914;28;20447;-50
2022/09/22 09:47:28;;;;;;;2.20;0.90;;;14.30;99.90;;;;;;5053964;28;20434;-50
2022/09/22 09:49:56;;;;;;;1.50;1.00;;;14.80;99.90;;;;;;5053501;28;20449;-50
2022/09/22 09:52:25;;;;;;;1.67;0.80;;;14.90;99.90;;;;;;5053631;28;20441;-50
2022/09/22 09:54:52;;;;;;;2.07;1.00;;;14.50;99.90;;;;;;5053696;28;20526;-51
2022/09/22 09:57:20;;;;;;;1.97;0.90;;;14.40;99.60;;;;;;5053587;28;20496;-50
2022/09/22 10:03:03;;;;;;;2.60;1.40;;;14.60;99.30;;;;;;5053835;28;20440;-51
2022/09/22 10:05:36;;;;;;;4.73;1.07;;;14.60;99.20;;;;;;5053612;28;20790;-51
2022/09/22 10:08:13;;;;;;;5.70;2.37;;;15.00;99.50;;;;;;5053477;28;20492;-51
2022/09/22 10:10:40;;;;;;;1.50;0.90;;;14.50;99.10;;;;;;5035332;28;20477;-51
2022/09/22 10:13:28;;;;;;;2.37;1.03;;;14.60;99.20;;;;;;5053466;28;20568;-51
2022/09/22 10:16:17;;;;;;;3.30;1.07;;;14.60;99.40;;;;;;5053456;28;20466;-51
2022/09/22 10:18:44;;;;;;;7.43;2.13;;;14.80;99.20;;;;;;5077433;22;20466;-46
2022/09/22 10:21:16;;;;;;;3.97;1.20;;;14.50;98.30;;;;;;5072670;28;20463;-46
2022/09/22 10:23:45;;;;;;;2.80;1.30;;;14.70;98.00;;;;;;5072680;28;20432;-47
2022/09/22 10:26:21;;;;;;;2.33;1.10;;;14.60;97.50;;;;;;5072825;28;20882;-46
2022/09/22 10:29:07;;;;;;;3.03;1.83;;;14.80;97.30;;;;;;5073179;28;20502;-46
2022/09/22 10:31:37;;;;;;;3.27;1.13;;;14.70;97.20;;;;;;5072545;28;20845;-46
2022/09/22 10:34:05;;;;;;;4.50;1.20;;;14.50;97.30;;;;;;5072842;28;20447;-48
2022/09/22 10:36:35;;;;;;;5.57;2.90;;;14.60;97.00;;;;;;5072442;28;20446;-49
2022/09/22 10:39:06;;;;;;;3.07;1.13;;;14.70;96.90;;;;;;5071997;28;20485;-46
2022/09/22 10:41:37;;;;;;;1.60;1.33;;;15.00;97.00;;;;;;5073009;28;20432;-46
2022/09/22 10:44:12;;;;;;;1.80;1.20;;;15.10;96.80;;;;;;5072610;28;20929;-47
2022/09/22 10:46:54;;;;;;;2.50;1.67;;;15.20;96.70;;;;;;5072810;28;20529;-45
2022/09/22 10:49:34;;;;;;;1.87;1.03;;;15.50;96.40;;;;;;5072279;28;20466;-47
2022/09/22 10:52:11;;;;;;;2.17;1.60;;;15.60;96.30;;;;;;5072087;28;20473;-45
2022/09/22 10:55:02;;;;;;;5.70;1.17;;;15.60;95.40;;;;;;5072194;28;20486;-46
2022/09/22 10:57:46;;;;;;;2.40;1.23;;;15.60;95.00;;;;;;5072499;28;20444;-45
2022/09/22 11:00:16;;;;;;;2.47;1.80;;;15.50;94.30;;;;;;5071587;28;20980;-48
2022/09/22 11:03:09;;;;;;;1.50;1.10;;;15.50;94.20;;;;;;5072092;28;20781;-46
2022/09/22 11:14:30;;;;;;;1.20;0.73;;;15.80;93.50;;;;;;5071614;28;20448;-46
2022/09/22 11:17:09;;;;;;;1.70;0.97;;;16.00;93.20;;;;;;5071772;28;20429;-46
2022/09/22 11:19:56;;;;;;;1.47;0.70;;;16.00;92.60;;;;;;5071584;28;20473;-46
2022/09/22 11:22:58;;;;;;;4.80;1.00;;;16.00;92.30;;;;;;5071563;28;20431;-48
2022/09/22 11:25:43;;;;;;;4.43;0.97;;;16.20;92.20;;;;;;5045998;28;20496;-48
2022/09/22 11:28:25;;;;;;;1.30;0.87;;;15.80;92.50;;;;;;5071634;28;20439;-46
2022/09/22 11:30:56;;;;;;;4.00;1.00;;;16.00;92.50;;;;;;5072000;28;20598;-46
2022/09/22 11:33:53;;;;;;;1.27;0.83;;;15.70;91.50;;;;;;5071511;28;20497;-48
2022/09/22 11:36:33;;;;;;;2.23;1.30;;;16.10;91.10;;;;;;5071569;28;20444;-45
2022/09/22 11:39:10;;;;;;;3.00;1.03;;;16.10;91.10;;;;;;5071405;28;20921;-46
2022/09/22 11:41:41;;;;;;;2.23;0.90;;;16.10;90.70;;;;;;5071328;28;20444;-46
2022/09/22 11:44:28;;;;;;;2.27;1.20;;;15.90;90.80;;;;;;5070799;28;20468;-46
2022/09/22 11:47:09;;;;;;;2.20;1.07;;;15.80;90.80;;;;;;5067414;28;21012;-46
2022/09/22 11:49:51;;;;;;;2.10;1.10;;;15.70;90.40;;;;;;5070993;28;20462;-46
2022/09/22 11:52:31;;;;;;;2.23;0.70;;;15.80;90.70;;;;;;5071352;28;20469;-46
2022/09/22 11:55:14;;;;;;;5.03;1.67;;;15.80;90.20;;;;;;5071060;28;20449;-46
2022/09/22 11:57:47;;;;;;;1.40;1.00;;;15.90;90.40;;;;;;5071180;28;20439;-46
2022/09/22 12:00:17;;;;;;;2.17;1.00;;;15.90;90.30;;;;;;5070873;28;20445;-47
2022/09/22 12:02:49;;;;;;;1.10;0.63;;;15.90;90.40;;;;;;5071331;28;20710;-46
2022/09/22 12:05:22;;;;;;;2.00;0.73;;;16.00;90.20;;;;;;5071948;28;20537;-46
2022/09/22 12:07:54;;;;;;;1.53;0.83;;;16.00;89.80;;;;;;5071320;28;20531;-46
2022/09/22 12:10:30;;;;;;;1.90;1.00;;;16.00;89.70;;;;;;5071042;28;20822;-46
2022/09/22 12:12:58;;;;;;;4.67;1.00;;;16.00;88.30;;;;;;5070852;28;21080;-45
2022/09/22 12:15:29;;;;;;;3.20;1.10;;;15.90;88.00;;;;;;5071366;28;20882;-46
2022/09/22 12:18:08;;;;;;;1.40;0.80;;;16.00;87.00;;;;;;5070947;28;20436;-47
2022/09/22 12:20:47;;;;;;;1.70;0.90;;;16.10;87.20;;;;;;5052371;28;20484;-46
2022/09/22 12:23:22;;;;;;;2.03;1.33;;;15.80;86.90;;;;;;5074182;28;20437;-49
2022/09/22 12:25:52;;;;;;;1.63;1.23;;;15.90;86.80;;;;;;5074865;28;20429;-46
2022/09/22 12:28:24;;;;;;;1.30;0.90;;;15.80;87.50;;;;;;5075783;28;20825;-46
2022/09/22 12:31:03;;;;;;;2.83;1.03;;;15.80;87.30;;;;;;5074949;28;20449;-47
2022/09/22 12:33:31;;;;;;;3.20;0.90;;;15.90;87.50;;;;;;5075043;28;20836;-46
2022/09/22 12:35:58;;;;;;;1.73;1.00;;;15.80;88.70;;;;;;5074315;28;20452;-47
2022/09/22 12:38:25;;;;;;;1.40;0.83;;;15.30;86.80;;;;;;5074086;28;20430;-47
2022/09/22 12:40:57;;;;;;;2.43;1.13;;;15.70;87.20;;;;;;5074447;28;20461;-47
2022/09/22 12:43:26;;;;;;;1.67;0.80;;;15.70;87.40;;;;;;5074700;28;20445;-45
2022/09/22 12:45:54;;;;;;;2.00;1.10;;;15.60;86.90;;;;;;5075153;28;20914;-47
2022/09/22 12:48:24;;;;;;;4.80;1.27;;;15.60;87.40;;;;;;5074142;28;20426;-47
2022/09/22 12:50:52;;;;;;;3.90;1.80;;;15.50;87.70;;;;;;5073997;28;20988;-46
2022/09/22 12:53:26;;;;;;;1.40;0.80;;;15.60;88.10;;;;;;5074054;28;20444;-47
2022/09/22 12:55:54;;;;;;;2.07;1.10;;;15.80;88.30;;;;;;5074480;28;20530;-47
2022/09/22 12:58:42;;;;;;;4.83;1.20;;;16.00;88.80;;;;;;5074284;28;20444;-50
2022/09/22 13:01:32;;;;;;;2.27;0.80;;;15.50;87.80;;;;;;5074403;28;20433;-46
2022/09/22 13:04:13;;;;;;;1.67;0.83;;;15.50;88.00;;;;;;5074664;28;20426;-46
2022/09/22 13:06:55;;;;;;;3.97;1.00;;;15.50;88.20;;;;;;5074564;28;20437;-46
2022/09/22 13:09:24;;;;;;;5.83;1.50;;;15.30;87.80;;;;;;5074282;28;20457;-44
2022/09/22 13:12:27;;;;;;;1.80;1.13;;;15.30;88.80;;;;;;5056478;28;20511;-48
2022/09/22 13:15:11;;;;;;;3.83;1.30;;;15.30;88.40;;;;;;5074209;28;20433;-47
2022/09/22 13:17:44;;;;;;;2.73;1.10;;;15.30;88.70;;;;;;5073917;28;20941;-47
2022/09/22 13:20:16;;;;;;;3.77;0.90;;;15.30;88.10;;;;;;5071743;28;20474;-46
2022/09/22 13:22:43;;;;;;;2.60;0.90;;;15.30;88.70;;;;;;5072540;28;20430;-45
2022/09/22 13:25:22;;;;;;;3.80;1.10;;;15.20;87.90;;;;;;5073932;28;20421;-45
2022/09/22 13:28:01;;;;;;;1.60;1.23;;;15.20;88.20;;;;;;5055645;28;20548;-45
2022/09/22 13:30:29;;;;;;;5.07;1.30;;;15.50;88.20;;;;;;5073669;28;20449;-47